Dernières infos :  

13/08/2017  Mise à jour des tableaux d'analyses décadaires
02/08/2017 Mise en ligne de la synthèse climatologique de Juillet 2017 : 
CLIQUEZ ICI
01/08/2017  Mise à jour des tableaux d'analyses décadaires, mensuelles et annuelles : rubrique climatologie

31/07/2017 Vidéo du violent orage de dimanche soir 30/07 : CLIQUEZ ICI   

Si l'entête du tableau ne s'affiche pas correctement, => actualisez la page (F5 avec Internet Explorer, Chrome...).
Utilisez l'ascenseur sur la droite des lignes du tableau pour faire défiler verticalement les jours du mois.

TABLEAU DES DONNEES COMPLETES NOAA D'AOUT 2016

DATE TEMPERATURE
sous abri
TEMPARATURE 
au sol
VENT  et  Indice de Refroidissement Eolien  PRECIPITATIONS (en mm/m2)
et Intensité
PRESSION ATMOSPHERIQUE (en hPa) HUMIDITE de l'AIR RADIATIONS SOLAIRES (en W/m2)
Mini Moy. Maxi Mini Moy. Maxi Moyen Rafale I.R.E.
Minii
Précip. jour Cumul mois Intensité Maxi Mini Moy. Maxi Mini Moy. Maxi Pic maxi du jour Total jour
01/08/2016 13.6° 20.2° 26.9° 12.2° 21.4° 32.8° 4.3km/h dir NNE 24.1km/h dir NO 13.6° 0 0 1017.3 1018.2 1019.2 41% 73.5% 96% 997 78 892
02/08/2016 13.7° 20.8° 27.8° 12.8° 21.7° 33.3° 2.7km/h dir NNE 33.8km/h dir E 13.7° 0 0 1017.1 1018.6 1019.9 46% 71.5% 94% 1209 68 931
03/08/2016 14.7° 22.6° 30.3° 13.3° 23.2° 36.1° 2.7km/h dir ONO 14.5km/h dir SSO 14.7° 0 0 1012.9 1015.7 1018.6 40% 68.9% 94% 868 81 212
04/08/2016 14.9° 18.9° 26.2° 13.3° 19° 33.9° 4.5km/h dir SE 33.8km/h dir ONO 14.9° 27.6 27.6 65.8mm/h 1010.5 1012.9 1015.9 53% 82.6% 95% 937 30 630
05/08/2016 13.7° 17° 20.9° 11.7° 17.2° 26.1° 3.9km/h dir O 22.5km/h dir SO 13.8° 2 29.6 7mm/h 1015.9 1019.7 1023.9 75% 90% 96% 1088 31 935
06/08/2016 10.5° 18° 24.7° 9.4° 18.8° 30° 6.9km/h dir NNE 30.6km/h dir N 10.5° 0.2 29.8 1023.8 1025.4 1026.9 48% 76% 97% 921 79 388
07/08/2016 12.7° 19.9° 26.6° 11.1° 20.4° 31.1° 7.6km/h dir N 32.2km/h dir NNE 12.7° 0 29.8 1023.4 1025.6 1027.5 51% 72.9% 93% 856 79 467
08/08/2016 13.1° 21.6° 29.2° 11.7° 22.2° 33.9° 3.7km/h dir ONO 19.3km/h dir N 13.1° 0 29.8 1019.1 1021.4 1023.6 49% 72.8% 96% 858 78 091
09/08/2016 14.3° 18.6° 21.6° 12.2° 19.1° 26.7° 7.2km/h dir ONO 27.4km/h dir NO 14.3° 0 29.8 1019.3 1019.9 1020.7 68% 78.2% 91% 793 42 417
10/08/2016 10.2° 16.3° 21.9° 7.8° 17° 28.3° 7.2km/h dir N 27.4km/h dir ONO 10.2° 0 29.8 1019.3 1020.6 1022.5 46% 70.5% 93% 1062 71 922
11/08/2016 9.3° 15.7° 21.6° 7.2° 16.5° 27.2° 6.3km/h dir NNE 25.7km/h dir N 9.3° 0 29.8 1022.4 1024 1025.2 44% 71% 92% 935 77 923
12/08/2016 10.2° 18.4° 25.9° 8.9° 19.5° 32.2° 3.9km/h dir ENE 20.9km/h dir NNE 10.2° 0 29.8 1023.8 1025.2 1026.6 51% 71.6% 93% 838 76 667
13/08/2016 12.4° 21.1° 29.9° 10.6° 21.3° 35° 2.4km/h dir ESE 14.5km/h dir SO 12.4° 0 29.8 1020.6 1022.6 1023.9 46% 73.6% 95% 831 75 963
14/08/2016 14.1° 23.2° 32.3° 12.2° 23.1° 37.2° 3.5km/h dir SE 19.3km/h dir S 14.1° 0 29.8 1017.6 1019.7 1021 36% 67% 95% 824 76 519
15/08/2016 15.3° 23.7° 33.1° 13.3° 23.5° 36.7° 3.7km/h dir ESE 22.5km/h dir SSE 15.3° 0 29.8 1014.1 1016.8 1018.6 28% 63% 93% 851 73 405
16/08/2016 16.1° 24.3° 32.2° 13.3° 23.8° 36.7° 4.8km/h dir SE 24.1km/h dir S 16.1° 0 29.8 1010.3 1013 1015.4 35% 58.1% 83% 809 74 584
17/08/2016 18.3° 24.4° 31.4° 16.1° 24.6° 36.1° 4.8km/h dir SSE 27.4km/h dir SO 18.3° 0 29.8 1007.8 1009.7 1010.9 43% 66.4% 89% 902 63 920
18/08/2016 17.9° 20.2° 26.3° 15° 20.2° 30° 2.9km/h dir SE 24.1km/h dir ONO 17.9° 10.2 40 17mm/h 1009.1 1010.4 1011.7 61% 82.9% 95% 1074 32 033
19/08/2016 14.6° 20.8° 27.6° 13.3° 22.1° 32.8° 1.9km/h dir ENE 14.5km/h dir ONO 14.6° 0.4 40.4 1009.7 1010.7 1011.9 49% 80.3% 97% 949 67 157
20/08/2016 15.1° 17.8° 20.8° 12.8° 17.6° 20° 2.4km/h dir E 22.5km/h dir O 15.1° 8.8 49.2 8mm/h 1011.4 1015.3 1020.1 88% 93% 96% 192 10 062
21/08/2016 11.8° 17.2° 22.4° 10° 17.7° 30° 3.1km/h dir SSE 22.5km/h dir O 11.8° 0.2 49.4 1020.1 1022.8 1025.3 48% 77.9% 97% 1107 55 189
22/08/2016 9.3° 17.8° 25.3° 7.8° 18.5° 31.1° 6km/h dir ONO 29km/h dir NO 9.3° 0.2 49.6 1024.6 1025.9 1027.4 49% 73.6% 96% 803 72 277
23/08/2016 12° 20.7° 29.1° 10.6° 21.1° 35° 2.9km/h dir NNE 16.1km/h dir NE 12° 0 49.6 1020.1 1022.8 1024.8 52% 75.7% 96% 809 71 357
24/08/2016 15.2° 23.8° 33.3° 13.3° 23.5° 37.8° 2.6km/h dir SSE 16.1km/h dir S 15.2° 0 49.6 1015.6 1018.4 1020.4 36% 71.3% 96% 798 71 039
25/08/2016 17.2° 25.4° 34.3° 13.9° 24.2° 37.8° 5.5km/h dir S 30.6km/h dir SSE 17.2° 0 49.6 1013.2 1015.2 1016.7 32% 59.8% 88% 793 71 004
26/08/2016 18.1° 25.9° 34.5° 14.4° 24.8° 38.9° 4km/h dir SE 20.9km/h dir S 18.1° 0 49.6 1014.3 1015.3 1016.6 35% 60.3% 83% 789 70 380
27/08/2016 18.1° 26.4° 34.5° 15° 25.9° 38.3° 5.6km/h dir SSE 27.4km/h dir SSE 18.1° 0 49.6 1014.1 1015.7 1017.2 34% 58.8% 87% 967 66 534
28/08/2016 20.1° 25.3° 31.7° 16.1° 24.8° 37.8° 5.1km/h dir SSE 24.1km/h dir S 20.1° 0 49.6 1015.4 1016.4 1018.1 34% 56.1% 80% 889 53 785
29/08/2016 17.1° 20.8° 24.8° 15° 21.2° 33.3° 5.1km/h dir ONO 22.5km/h dir N 17.2° 0 49.6 1018.1 1019.8 1021.1 49% 69.8% 90% 944 41 151
30/08/2016 14.2° 20.2° 27.7° 12.8° 21.5° 35° 5.3km/h dir ONO 25.7km/h dir ONO 14.2° 0 49.6 1016.8 1018.9 1021.1 52% 73.9% 92% 833 63 897
31/08/2016 15.3° 22.3° 30.2° 13.9° 22.7° 37.2° 2.4km/h dir SSE 16.1km/h dir NNE 15.3° 0 49.6 1017.5 1018.6 1019.7 42% 71.4% 95% 752 65 553

RETOUR ACCUEIL


Date de création : 03/09/2016 : 14:53
Catégorie : ARCHIVES 2002 à 2016 - ANNEES 2010 à 2019 - ANNEE 2016 - AOUT 2016
Page lue 686 fois


Réactions à cet article

Personne n'a encore laissé de commentaire.
Soyez donc le premier !